KAEX

Alexandria International Airport

Alexandria, Louisiana, USA
METAR KAEX 201353Z 25006KT 7SM CLR 28/24 A2995 RMK AO2 SLP145 T02830244
Observed Flight Rules
Jul-20 @ 13:53 UTC (48 minutes ago) Visual Flight Rules
Wind Visibility Clouds
250° at 6 knots 7 miles
  • Clear skies
Temperatures Readings
Current 28°C / 82°F
Dewpoint 24°C / 75°F
Humidity 79%
Altimeter 29.95" Hg
Pressure 1014.5 hPa
Elevation 27
METAR KAEX 201353Z 25006KT 7SM CLR 28/24 A2995 RMK AO2 SLP145 T02830244
Observed Flight Rules
Jul-20 @ 13:53 UTC
(48 minutes ago)
VFR
Wind Visibility
250° at 6 knots 7 miles
Clouds
  • Clear skies
Temperature Dewpoint
28°C / 82°F 24°C / 75°F
Humidity Altimeter Pressure
79% 29.95" Hg 1014.5 hPa